sensor_id;sensor_type;location;lat;lon;timestamp;pressure;altitude;pressure_sealevel;temperature;humidity
21706;BME280;11014;53.076;18.208;2023-11-21T00:00:21;100715.94;;;5.76;71.06
21706;BME280;11014;53.076;18.208;2023-11-21T00:03:09;100718.16;;;5.73;71.16
21706;BME280;11014;53.076;18.208;2023-11-21T00:06:05;100719.84;;;5.80;71.19
21706;BME280;11014;53.076;18.208;2023-11-21T00:08:37;100727.75;;;5.67;71.10
21706;BME280;11014;53.076;18.208;2023-11-21T00:11:31;100719.59;;;5.75;71.25
21706;BME280;11014;53.076;18.208;2023-11-21T00:14:00;100724.47;;;5.65;71.07
21706;BME280;11014;53.076;18.208;2023-11-21T00:16:28;100729.38;;;5.62;71.29
21706;BME280;11014;53.076;18.208;2023-11-21T00:18:58;100737.97;;;5.64;71.09
21706;BME280;11014;53.076;18.208;2023-11-21T00:21:26;100744.13;;;5.64;71.20
21706;BME280;11014;53.076;18.208;2023-11-21T00:23:55;100750.91;;;5.67;71.14
21706;BME280;11014;53.076;18.208;2023-11-21T00:26:24;100748.25;;;5.67;71.14
21706;BME280;11014;53.076;18.208;2023-11-21T00:29:03;100756.03;;;5.68;70.76
21706;BME280;11014;53.076;18.208;2023-11-21T00:31:31;100749.91;;;5.68;70.94
21706;BME280;11014;53.076;18.208;2023-11-21T00:34:02;100750.09;;;5.66;70.76
21706;BME280;11014;53.076;18.208;2023-11-21T00:36:32;100745.78;;;5.65;70.75
21706;BME280;11014;53.076;18.208;2023-11-21T00:39:01;100752.53;;;5.61;70.96
21706;BME280;11014;53.076;18.208;2023-11-21T00:41:32;100752.72;;;5.60;71.00
21706;BME280;11014;53.076;18.208;2023-11-21T00:44:01;100749.84;;;5.61;71.26
21706;BME280;11014;53.076;18.208;2023-11-21T00:46:29;100757.84;;;5.61;71.20
21706;BME280;11014;53.076;18.208;2023-11-21T00:48:59;100763.19;;;5.61;70.95
21706;BME280;11014;53.076;18.208;2023-11-21T00:51:27;100763.19;;;5.61;70.80
21706;BME280;11014;53.076;18.208;2023-11-21T00:53:56;100766.66;;;5.62;71.07
21706;BME280;11014;53.076;18.208;2023-11-21T00:56:25;100779.41;;;5.66;71.12
21706;BME280;11014;53.076;18.208;2023-11-21T00:58:54;100778.16;;;5.62;71.16
21706;BME280;11014;53.076;18.208;2023-11-21T01:01:22;100775.28;;;5.64;70.87
21706;BME280;11014;53.076;18.208;2023-11-21T01:03:52;100770.34;;;5.61;70.97
21706;BME280;11014;53.076;18.208;2023-11-21T01:06:20;100774.47;;;5.63;71.34
21706;BME280;11014;53.076;18.208;2023-11-21T01:08:49;100769.56;;;5.67;71.22
21706;BME280;11014;53.076;18.208;2023-11-21T01:11:17;100776.13;;;5.64;70.86
21706;BME280;11014;53.076;18.208;2023-11-21T01:13:46;100781.44;;;5.64;70.83
21706;BME280;11014;53.076;18.208;2023-11-21T01:16:15;100783.09;;;5.65;71.04
21706;BME280;11014;53.076;18.208;2023-11-21T01:18:45;100792.50;;;5.61;70.54
21706;BME280;11014;53.076;18.208;2023-11-21T01:21:17;100797.97;;;5.53;70.78
21706;BME280;11014;53.076;18.208;2023-11-21T01:23:46;100796.88;;;5.48;70.70
21706;BME280;11014;53.076;18.208;2023-11-21T01:26:17;100800.78;;;5.45;71.01
21706;BME280;11014;53.076;18.208;2023-11-21T01:28:45;100799.75;;;5.46;71.15
21706;BME280;11014;53.076;18.208;2023-11-21T01:31:17;100803.88;;;5.49;71.03
21706;BME280;11014;53.076;18.208;2023-11-21T01:33:47;100806.34;;;5.50;70.90
21706;BME280;11014;53.076;18.208;2023-11-21T01:36:16;100806.09;;;5.45;70.85
21706;BME280;11014;53.076;18.208;2023-11-21T01:38:46;100807.56;;;5.48;70.77
21706;BME280;11014;53.076;18.208;2023-11-21T01:41:16;100806.34;;;5.50;71.03
21706;BME280;11014;53.076;18.208;2023-11-21T01:43:46;100813.94;;;5.53;70.71
21706;BME280;11014;53.076;18.208;2023-11-21T01:46:14;100808.00;;;5.51;70.70
21706;BME280;11014;53.076;18.208;2023-11-21T01:48:44;100807.38;;;5.49;70.72
21706;BME280;11014;53.076;18.208;2023-11-21T01:51:13;100805.72;;;5.48;70.67
21706;BME280;11014;53.076;18.208;2023-11-21T01:53:42;100804.72;;;5.49;70.58
21706;BME280;11014;53.076;18.208;2023-11-21T01:56:14;100810.41;;;5.46;70.80
21706;BME280;11014;53.076;18.208;2023-11-21T01:58:44;100809.59;;;5.46;70.44
21706;BME280;11014;53.076;18.208;2023-11-21T02:01:15;100819.88;;;5.49;70.46
21706;BME280;11014;53.076;18.208;2023-11-21T02:03:44;100819.03;;;5.48;70.56
21706;BME280;11014;53.076;18.208;2023-11-21T02:06:13;100824.75;;;5.45;70.32
21706;BME280;11014;53.076;18.208;2023-11-21T02:08:43;100818.78;;;5.43;70.64
21706;BME280;11014;53.076;18.208;2023-11-21T02:11:12;100821.47;;;5.43;70.64
21706;BME280;11014;53.076;18.208;2023-11-21T02:13:41;100812.81;;;5.41;70.43
21706;BME280;11014;53.076;18.208;2023-11-21T02:16:14;100807.91;;;5.38;70.38
21706;BME280;11014;53.076;18.208;2023-11-21T02:18:43;100813.59;;;5.35;70.42
21706;BME280;11014;53.076;18.208;2023-11-21T02:21:12;100822.38;;;5.35;70.56
21706;BME280;11014;53.076;18.208;2023-11-21T02:23:41;100827.94;;;5.34;70.60
21706;BME280;11014;53.076;18.208;2023-11-21T02:26:13;100821.94;;;5.53;70.03
21706;BME280;11014;53.076;18.208;2023-11-21T02:28:42;100822.59;;;5.34;69.96
21706;BME280;11014;53.076;18.208;2023-11-21T02:31:11;100827.84;;;5.27;70.20
21706;BME280;11014;53.076;18.208;2023-11-21T02:33:47;100829.06;;;5.25;70.25
21706;BME280;11014;53.076;18.208;2023-11-21T02:36:15;100838.47;;;5.21;70.32
21706;BME280;11014;53.076;18.208;2023-11-21T02:38:44;100833.13;;;5.21;70.68
21706;BME280;11014;53.076;18.208;2023-11-21T02:41:13;100835.22;;;5.25;70.75
21706;BME280;11014;53.076;18.208;2023-11-21T02:43:42;100834.00;;;5.28;70.67
21706;BME280;11014;53.076;18.208;2023-11-21T02:46:12;100835.41;;;5.24;70.38
21706;BME280;11014;53.076;18.208;2023-11-21T02:48:41;100857.72;;;5.23;70.23
21706;BME280;11014;53.076;18.208;2023-11-21T02:51:10;100860.13;;;5.18;70.14
21706;BME280;11014;53.076;18.208;2023-11-21T02:53:40;100859.69;;;5.14;70.47
21706;BME280;11014;53.076;18.208;2023-11-21T02:56:08;100860.13;;;5.18;70.22
21706;BME280;11014;53.076;18.208;2023-11-21T02:59:02;100862.69;;;5.26;70.20
21706;BME280;11014;53.076;18.208;2023-11-21T03:01:31;100867.50;;;5.16;70.02
21706;BME280;11014;53.076;18.208;2023-11-21T03:04:00;100861.97;;;5.17;70.23
21706;BME280;11014;53.076;18.208;2023-11-21T03:06:29;100857.47;;;5.18;70.01
21706;BME280;11014;53.076;18.208;2023-11-21T03:08:58;100864.84;;;5.16;69.65
21706;BME280;11014;53.076;18.208;2023-11-21T03:11:27;100863.38;;;5.13;69.80
21706;BME280;11014;53.076;18.208;2023-11-21T03:13:56;100871.91;;;5.09;69.58
21706;BME280;11014;53.076;18.208;2023-11-21T03:16:27;100876.81;;;5.05;69.49
21706;BME280;11014;53.076;18.208;2023-11-21T03:18:55;100877.81;;;5.04;69.35
21706;BME280;11014;53.076;18.208;2023-11-21T03:21:24;100877.97;;;5.03;69.36
21706;BME280;11014;53.076;18.208;2023-11-21T03:23:54;100892.13;;;5.03;69.42
21706;BME280;11014;53.076;18.208;2023-11-21T03:26:23;100888.25;;;5.06;69.35
21706;BME280;11014;53.076;18.208;2023-11-21T03:29:09;100884.50;;;5.00;69.17
21706;BME280;11014;53.076;18.208;2023-11-21T03:31:39;100891.28;;;5.03;69.08
21706;BME280;11014;53.076;18.208;2023-11-21T03:34:14;100888.63;;;5.03;69.33
21706;BME280;11014;53.076;18.208;2023-11-21T03:36:43;100885.81;;;5.04;69.03
21706;BME280;11014;53.076;18.208;2023-11-21T03:39:12;100888.25;;;5.06;69.09
21706;BME280;11014;53.076;18.208;2023-11-21T03:41:41;100888.47;;;5.04;68.90
21706;BME280;11014;53.076;18.208;2023-11-21T03:44:11;100881.69;;;5.02;69.03
21706;BME280;11014;53.076;18.208;2023-11-21T03:46:40;100883.72;;;5.00;68.69
21706;BME280;11014;53.076;18.208;2023-11-21T03:49:12;100892.31;;;5.02;68.60
21706;BME280;11014;53.076;18.208;2023-11-21T03:51:42;100888.00;;;5.01;68.54
21706;BME280;11014;53.076;18.208;2023-11-21T03:54:11;100890.66;;;5.01;68.79
21706;BME280;11014;53.076;18.208;2023-11-21T03:56:40;100881.22;;;4.98;68.58
21706;BME280;11014;53.076;18.208;2023-11-21T03:59:09;100886.53;;;4.98;68.75
21706;BME280;11014;53.076;18.208;2023-11-21T04:01:38;100890.03;;;4.99;68.48
21706;BME280;11014;53.076;18.208;2023-11-21T04:04:06;100897.66;;;5.02;68.64
21706;BME280;11014;53.076;18.208;2023-11-21T04:06:35;100897.66;;;5.02;68.30
21706;BME280;11014;53.076;18.208;2023-11-21T04:09:06;100897.03;;;5.00;68.15
21706;BME280;11014;53.076;18.208;2023-11-21T04:11:34;100896.19;;;4.99;68.16
21706;BME280;11014;53.076;18.208;2023-11-21T04:14:03;100897.28;;;5.05;68.56
21706;BME280;11014;53.076;18.208;2023-11-21T04:16:32;100901.69;;;4.98;68.07
21706;BME280;11014;53.076;18.208;2023-11-21T04:19:02;100901.44;;;4.93;67.98
21706;BME280;11014;53.076;18.208;2023-11-21T04:21:31;100909.63;;;4.91;68.01
21706;BME280;11014;53.076;18.208;2023-11-21T04:24:01;100911.06;;;4.94;68.24
21706;BME280;11014;53.076;18.208;2023-11-21T04:26:31;100914.38;;;4.96;68.03
21706;BME280;11014;53.076;18.208;2023-11-21T04:29:00;100921.34;;;4.97;68.13
21706;BME280;11014;53.076;18.208;2023-11-21T04:31:29;100921.47;;;4.89;67.67
21706;BME280;11014;53.076;18.208;2023-11-21T04:33:58;100930.06;;;4.91;67.69
21706;BME280;11014;53.076;18.208;2023-11-21T04:36:26;100933.09;;;4.88;67.73
21706;BME280;11014;53.076;18.208;2023-11-21T04:38:58;100942.56;;;4.90;67.54
21706;BME280;11014;53.076;18.208;2023-11-21T04:41:27;100941.66;;;4.83;67.33
21706;BME280;11014;53.076;18.208;2023-11-21T04:43:56;100944.84;;;4.78;67.45
21706;BME280;11014;53.076;18.208;2023-11-21T04:46:24;100946.53;;;4.79;67.37
21706;BME280;11014;53.076;18.208;2023-11-21T04:48:55;100953.09;;;4.84;67.52
21706;BME280;11014;53.076;18.208;2023-11-21T04:51:27;100943.84;;;4.79;67.30
21706;BME280;11014;53.076;18.208;2023-11-21T04:53:55;100943.22;;;4.77;67.28
21706;BME280;11014;53.076;18.208;2023-11-21T04:56:24;100946.63;;;4.71;66.92
21706;BME280;11014;53.076;18.208;2023-11-21T04:58:53;100948.66;;;4.69;67.11
21706;BME280;11014;53.076;18.208;2023-11-21T05:01:22;100959.91;;;4.71;67.05
21706;BME280;11014;53.076;18.208;2023-11-21T05:03:51;100968.53;;;4.73;66.93
21706;BME280;11014;53.076;18.208;2023-11-21T05:06:23;100970.19;;;4.74;66.87
21706;BME280;11014;53.076;18.208;2023-11-21T05:08:52;100974.22;;;4.70;66.65
21706;BME280;11014;53.076;18.208;2023-11-21T05:11:27;100981.56;;;4.68;66.65
21706;BME280;11014;53.076;18.208;2023-11-21T05:13:58;100987.63;;;4.62;66.92
21706;BME280;11014;53.076;18.208;2023-11-21T05:16:30;100989.28;;;4.63;66.60
21706;BME280;11014;53.076;18.208;2023-11-21T05:18:59;100985.16;;;4.61;66.67
21706;BME280;11014;53.076;18.208;2023-11-21T05:21:31;100987.19;;;4.59;66.52
21706;BME280;11014;53.076;18.208;2023-11-21T05:24:05;100986.78;;;4.62;66.73
21706;BME280;11014;53.076;18.208;2023-11-21T05:26:39;100994.59;;;4.63;66.53
21706;BME280;11014;53.076;18.208;2023-11-21T05:29:08;100994.59;;;4.63;66.75
21706;BME280;11014;53.076;18.208;2023-11-21T05:31:38;100989.28;;;4.63;66.74
21706;BME280;11014;53.076;18.208;2023-11-21T05:34:07;100999.94;;;4.63;66.77
21706;BME280;11014;53.076;18.208;2023-11-21T05:36:36;101007.63;;;4.58;66.66
21706;BME280;11014;53.076;18.208;2023-11-21T05:39:05;100996.03;;;4.51;66.42
21706;BME280;11014;53.076;18.208;2023-11-21T05:41:33;101000.38;;;4.52;66.69
21706;BME280;11014;53.076;18.208;2023-11-21T05:44:04;101010.66;;;4.55;66.43
21706;BME280;11014;53.076;18.208;2023-11-21T05:46:32;101010.94;;;4.60;66.23
21706;BME280;11014;53.076;18.208;2023-11-21T05:49:02;101010.56;;;4.63;66.09
21706;BME280;11014;53.076;18.208;2023-11-21T05:51:31;101026.16;;;4.66;66.01
21706;BME280;11014;53.076;18.208;2023-11-21T05:53:59;101022.88;;;4.64;66.16
21706;BME280;11014;53.076;18.208;2023-11-21T05:56:28;101026.88;;;4.60;65.90
21706;BME280;11014;53.076;18.208;2023-11-21T05:58:57;101035.16;;;4.65;65.85
21706;BME280;11014;53.076;18.208;2023-11-21T06:01:26;101034.78;;;4.68;66.03
21706;BME280;11014;53.076;18.208;2023-11-21T06:03:56;101031.50;;;4.66;65.52
21706;BME280;11014;53.076;18.208;2023-11-21T06:06:26;101030.84;;;4.64;65.77
21706;BME280;11014;53.076;18.208;2023-11-21T06:08:55;101037.16;;;4.63;65.70
21706;BME280;11014;53.076;18.208;2023-11-21T06:11:24;101043.31;;;4.64;65.77
21706;BME280;11014;53.076;18.208;2023-11-21T06:13:53;101051.94;;;4.66;65.80
21706;BME280;11014;53.076;18.208;2023-11-21T06:16:21;101058.09;;;4.66;65.61
21706;BME280;11014;53.076;18.208;2023-11-21T06:18:53;101062.94;;;4.63;65.28
21706;BME280;11014;53.076;18.208;2023-11-21T06:21:21;101071.13;;;4.61;65.16
21706;BME280;11014;53.076;18.208;2023-11-21T06:23:50;101072.75;;;4.62;65.29
21706;BME280;11014;53.076;18.208;2023-11-21T06:26:21;101074.59;;;4.62;65.09
21706;BME280;11014;53.076;18.208;2023-11-21T06:28:50;101080.94;;;4.61;64.96
21706;BME280;11014;53.076;18.208;2023-11-21T06:31:19;101092.75;;;4.58;65.01
21706;BME280;11014;53.076;18.208;2023-11-21T06:33:50;101091.75;;;4.59;64.85
21706;BME280;11014;53.076;18.208;2023-11-21T06:36:20;101100.03;;;4.64;64.78
21706;BME280;11014;53.076;18.208;2023-11-21T06:38:49;101101.50;;;4.67;64.90
21706;BME280;11014;53.076;18.208;2023-11-21T06:41:18;101108.28;;;4.69;65.15
21706;BME280;11014;53.076;18.208;2023-11-21T06:43:47;101110.47;;;4.66;64.96
21706;BME280;11014;53.076;18.208;2023-11-21T06:46:15;101107.00;;;4.65;64.67
21706;BME280;11014;53.076;18.208;2023-11-21T06:48:44;101106.34;;;4.63;64.65
21706;BME280;11014;53.076;18.208;2023-11-21T06:51:13;101117.00;;;4.63;64.53
21706;BME280;11014;53.076;18.208;2023-11-21T06:53:42;101111.66;;;4.63;64.70
21706;BME280;11014;53.076;18.208;2023-11-21T06:56:17;101120.66;;;4.62;64.58
21706;BME280;11014;53.076;18.208;2023-11-21T06:58:46;101123.50;;;4.61;64.30
21706;BME280;11014;53.076;18.208;2023-11-21T07:01:15;101131.28;;;4.62;64.37
21706;BME280;11014;53.076;18.208;2023-11-21T07:03:44;101133.94;;;4.62;64.38
21706;BME280;11014;53.076;18.208;2023-11-21T07:06:12;101136.44;;;4.64;64.13
21706;BME280;11014;53.076;18.208;2023-11-21T07:08:44;101143.56;;;4.86;64.12
21706;BME280;11014;53.076;18.208;2023-11-21T07:11:13;101139.56;;;4.67;63.85
21706;BME280;11014;53.076;18.208;2023-11-21T07:13:42;101137.66;;;4.61;63.78
21706;BME280;11014;53.076;18.208;2023-11-21T07:16:10;101147.63;;;4.59;64.03
21706;BME280;11014;53.076;18.208;2023-11-21T07:18:39;101147.63;;;4.59;63.63
21706;BME280;11014;53.076;18.208;2023-11-21T07:21:08;101152.94;;;4.59;63.86
21706;BME280;11014;53.076;18.208;2023-11-21T07:23:37;101163.56;;;4.59;63.82
21706;BME280;11014;53.076;18.208;2023-11-21T07:26:06;101158.25;;;4.59;63.60
21706;BME280;11014;53.076;18.208;2023-11-21T07:28:37;101153.75;;;4.60;63.52
21706;BME280;11014;53.076;18.208;2023-11-21T07:31:06;101162.38;;;4.62;63.43
21706;BME280;11014;53.076;18.208;2023-11-21T07:33:34;101167.19;;;4.66;63.50
21706;BME280;11014;53.076;18.208;2023-11-21T07:36:03;101169.03;;;4.66;63.45
21706;BME280;11014;53.076;18.208;2023-11-21T07:38:32;101172.31;;;4.68;63.58
21706;BME280;11014;53.076;18.208;2023-11-21T07:41:01;101173.50;;;4.65;63.11
21706;BME280;11014;53.076;18.208;2023-11-21T07:43:30;101180.16;;;4.69;63.25
21706;BME280;11014;53.076;18.208;2023-11-21T07:46:04;101181.78;;;4.70;63.26
21706;BME280;11014;53.076;18.208;2023-11-21T07:48:34;101190.59;;;4.71;63.15
21706;BME280;11014;53.076;18.208;2023-11-21T07:51:02;101183.81;;;4.68;62.92
21706;BME280;11014;53.076;18.208;2023-11-21T07:53:34;101190.06;;;4.75;63.10
21706;BME280;11014;53.076;18.208;2023-11-21T07:56:04;101188.91;;;4.78;63.09
21706;BME280;11014;53.076;18.208;2023-11-21T07:58:33;101186.88;;;4.80;62.66
21706;BME280;11014;53.076;18.208;2023-11-21T08:01:02;101186.88;;;4.80;62.59
21706;BME280;11014;53.076;18.208;2023-11-21T08:03:31;101185.69;;;4.83;62.72
21706;BME280;11014;53.076;18.208;2023-11-21T08:06:00;101180.38;;;4.83;62.39
21706;BME280;11014;53.076;18.208;2023-11-21T08:08:31;101186.53;;;4.83;62.29
21706;BME280;11014;53.076;18.208;2023-11-21T08:11:00;101197.16;;;4.83;62.42
21706;BME280;11014;53.076;18.208;2023-11-21T08:13:29;101197.16;;;4.83;62.17
21706;BME280;11014;53.076;18.208;2023-11-21T08:16:01;101194.31;;;4.85;61.96
21706;BME280;11014;53.076;18.208;2023-11-21T08:18:31;101193.66;;;4.83;61.98
21706;BME280;11014;53.076;18.208;2023-11-21T08:21:00;101192.28;;;4.87;62.16
21706;BME280;11014;53.076;18.208;2023-11-21T08:23:29;101194.88;;;4.95;62.14
21706;BME280;11014;53.076;18.208;2023-11-21T08:25:58;101198.22;;;4.97;61.60
21706;BME280;11014;53.076;18.208;2023-11-21T08:28:28;101193.16;;;5.02;61.94
21706;BME280;11014;53.076;18.208;2023-11-21T08:30:57;101197.94;;;5.06;61.68
21706;BME280;11014;53.076;18.208;2023-11-21T08:33:25;101201.25;;;5.08;61.67
21706;BME280;11014;53.076;18.208;2023-11-21T08:35:54;101194.38;;;5.14;61.66
21706;BME280;11014;53.076;18.208;2023-11-21T08:38:23;101203.66;;;5.18;61.73
21706;BME280;11014;53.076;18.208;2023-11-21T08:40:51;101200.81;;;5.19;61.67
21706;BME280;11014;53.076;18.208;2023-11-21T08:43:20;101199.81;;;5.20;61.57
21706;BME280;11014;53.076;18.208;2023-11-21T08:45:49;101194.38;;;5.14;61.23
21706;BME280;11014;53.076;18.208;2023-11-21T08:48:17;101203.91;;;5.08;61.00
21706;BME280;11014;53.076;18.208;2023-11-21T08:50:46;101210.06;;;5.09;61.12
21706;BME280;11014;53.076;18.208;2023-11-21T08:53:14;101213.41;;;5.11;60.91
21706;BME280;11014;53.076;18.208;2023-11-21T08:55:44;101208.63;;;5.21;61.05
21706;BME280;11014;53.076;18.208;2023-11-21T08:58:12;101213.25;;;5.27;60.86
21706;BME280;11014;53.076;18.208;2023-11-21T09:00:41;101212.22;;;5.28;60.43
21706;BME280;11014;53.076;18.208;2023-11-21T09:03:10;101215.56;;;5.30;60.19
21706;BME280;11014;53.076;18.208;2023-11-21T09:05:39;101212.88;;;5.30;60.02
21706;BME280;11014;53.076;18.208;2023-11-21T09:08:08;101223.16;;;5.33;60.31
21706;BME280;11014;53.076;18.208;2023-11-21T09:10:36;101227.75;;;5.39;60.41
21706;BME280;11014;53.076;18.208;2023-11-21T09:13:05;101223.38;;;5.46;60.24
21706;BME280;11014;53.076;18.208;2023-11-21T09:15:34;101236.59;;;5.54;60.19
21706;BME280;11014;53.076;18.208;2023-11-21T09:18:03;101227.50;;;5.63;60.04
21706;BME280;11014;53.076;18.208;2023-11-21T09:20:33;101239.09;;;5.70;59.69
21706;BME280;11014;53.076;18.208;2023-11-21T09:23:02;101239.16;;;5.77;59.26
21706;BME280;11014;53.076;18.208;2023-11-21T09:25:30;101237.97;;;5.79;59.17
21706;BME280;11014;53.076;18.208;2023-11-21T09:27:59;101235.97;;;5.81;59.19
21706;BME280;11014;53.076;18.208;2023-11-21T09:30:28;101240.94;;;5.84;59.39
21706;BME280;11014;53.076;18.208;2023-11-21T09:32:56;101247.94;;;5.85;59.15
21706;BME280;11014;53.076;18.208;2023-11-21T09:35:27;101247.56;;;5.88;59.44
21706;BME280;11014;53.076;18.208;2023-11-21T09:37:55;101257.22;;;5.89;59.50
21706;BME280;11014;53.076;18.208;2023-11-21T09:40:24;101253.38;;;5.92;59.09
21706;BME280;11014;53.076;18.208;2023-11-21T09:42:56;101259.81;;;5.97;59.41
21706;BME280;11014;53.076;18.208;2023-11-21T09:45:28;101261.84;;;5.95;58.70
21706;BME280;11014;53.076;18.208;2023-11-21T09:47:57;101271.47;;;5.96;58.72
21706;BME280;11014;53.076;18.208;2023-11-21T09:50:27;101263.19;;;5.91;58.39
21706;BME280;11014;53.076;18.208;2023-11-21T09:53:19;101259.16;;;5.95;58.08
21706;BME280;11014;53.076;18.208;2023-11-21T09:55:52;101268.25;;;5.86;58.48
21706;BME280;11014;53.076;18.208;2023-11-21T09:58:20;101263.56;;;5.88;58.50
21706;BME280;11014;53.076;18.208;2023-11-21T10:00:55;101265.41;;;5.88;58.31
21706;BME280;11014;53.076;18.208;2023-11-21T10:03:25;101266.59;;;6.15;58.03
21706;BME280;11014;53.076;18.208;2023-11-21T10:05:56;101272.19;;;5.90;58.09
21706;BME280;11014;53.076;18.208;2023-11-21T10:08:29;101265.59;;;5.86;58.47
21706;BME280;11014;53.076;18.208;2023-11-21T10:11:17;101275.91;;;5.89;58.39
21706;BME280;11014;53.076;18.208;2023-11-21T10:13:49;101267.69;;;5.91;58.60
21706;BME280;11014;53.076;18.208;2023-11-21T10:16:23;101261.91;;;5.87;58.55
21706;BME280;11014;53.076;18.208;2023-11-21T10:18:54;101263.94;;;5.85;58.38
21706;BME280;11014;53.076;18.208;2023-11-21T10:21:39;101266.44;;;5.87;58.21
21706;BME280;11014;53.076;18.208;2023-11-21T10:24:08;101277.53;;;5.90;58.28
21706;BME280;11014;53.076;18.208;2023-11-21T10:26:37;101270.94;;;5.86;58.00
21706;BME280;11014;53.076;18.208;2023-11-21T10:29:20;101272.81;;;5.78;57.79
21706;BME280;11014;53.076;18.208;2023-11-21T10:31:50;101280.00;;;5.77;57.70
21706;BME280;11014;53.076;18.208;2023-11-21T10:34:20;101284.31;;;5.78;57.77
21706;BME280;11014;53.076;18.208;2023-11-21T10:36:50;101293.31;;;5.77;57.79
21706;BME280;11014;53.076;18.208;2023-11-21T10:39:22;101299.69;;;5.76;57.60
21706;BME280;11014;53.076;18.208;2023-11-21T10:41:55;101292.03;;;5.73;57.20
21706;BME280;11014;53.076;18.208;2023-11-21T10:44:23;101303.69;;;5.72;57.41
21706;BME280;11014;53.076;18.208;2023-11-21T10:46:54;101303.06;;;5.70;57.27
21706;BME280;11014;53.076;18.208;2023-11-21T10:49:26;101297.25;;;5.67;57.05
21706;BME280;11014;53.076;18.208;2023-11-21T10:51:56;101298.09;;;5.67;57.33
21706;BME280;11014;53.076;18.208;2023-11-21T10:54:25;101291.72;;;5.68;57.61
21706;BME280;11014;53.076;18.208;2023-11-21T10:56:59;101290.38;;;5.72;57.66
21706;BME280;11014;53.076;18.208;2023-11-21T10:59:30;101304.41;;;5.66;57.31
21706;BME280;11014;53.076;18.208;2023-11-21T11:02:02;101306.72;;;5.69;57.00
21706;BME280;11014;53.076;18.208;2023-11-21T11:04:33;101304.41;;;5.66;57.07
21706;BME280;11014;53.076;18.208;2023-11-21T11:07:08;101300.91;;;5.66;57.32
21706;BME280;11014;53.076;18.208;2023-11-21T11:09:40;101307.72;;;5.68;57.27
21706;BME280;11014;53.076;18.208;2023-11-21T11:12:09;101308.41;;;5.70;57.13
21706;BME280;11014;53.076;18.208;2023-11-21T11:14:41;101306.38;;;5.72;57.24
21706;BME280;11014;53.076;18.208;2023-11-21T11:17:10;101310.69;;;5.73;57.53
21706;BME280;11014;53.076;18.208;2023-11-21T11:19:39;101308.03;;;5.73;57.12
21706;BME280;11014;53.076;18.208;2023-11-21T11:22:29;101305.06;;;5.68;56.89
21706;BME280;11014;53.076;18.208;2023-11-21T11:25:21;101314.16;;;5.74;56.88
21706;BME280;11014;53.076;18.208;2023-11-21T11:28:14;101315.28;;;5.65;56.86
21706;BME280;11014;53.076;18.208;2023-11-21T11:31:18;101313.06;;;5.68;56.83
21706;BME280;11014;53.076;18.208;2023-11-21T11:34:28;101328.69;;;5.71;56.79
21706;BME280;11014;53.076;18.208;2023-11-21T11:37:07;101332.75;;;5.67;56.71
21706;BME280;11014;53.076;18.208;2023-11-21T11:39:42;101333.09;;;5.64;56.86
21706;BME280;11014;53.076;18.208;2023-11-21T11:42:14;101341.09;;;5.64;56.76
21706;BME280;11014;53.076;18.208;2023-11-21T11:47:16;101355.06;;;5.66;56.90
21706;BME280;11014;53.076;18.208;2023-11-21T11:49:57;101355.44;;;5.63;56.40
21706;BME280;11014;53.076;18.208;2023-11-21T11:52:37;101357.31;;;5.55;56.29
21706;BME280;11014;53.076;18.208;2023-11-21T11:55:11;101364.66;;;5.75;56.08
21706;BME280;11014;53.076;18.208;2023-11-21T11:57:42;101371.78;;;5.60;56.58
21706;BME280;11014;53.076;18.208;2023-11-21T12:00:12;101373.78;;;5.58;56.94
21706;BME280;11014;53.076;18.208;2023-11-21T12:02:50;101368.47;;;5.58;56.94
21706;BME280;11014;53.076;18.208;2023-11-21T12:05:21;101380.50;;;5.54;56.92
21706;BME280;11014;53.076;18.208;2023-11-21T12:07:52;101373.44;;;5.61;57.08
21706;BME280;11014;53.076;18.208;2023-11-21T12:10:24;101368.94;;;5.62;56.74
21706;BME280;11014;53.076;18.208;2023-11-21T12:12:57;101374.88;;;5.49;56.08
21706;BME280;11014;53.076;18.208;2023-11-21T12:15:27;101379.38;;;5.49;56.21
21706;BME280;11014;53.076;18.208;2023-11-21T12:17:59;101381.03;;;5.50;56.27
21706;BME280;11014;53.076;18.208;2023-11-21T12:20:28;101376.16;;;5.53;56.38
21706;BME280;11014;53.076;18.208;2023-11-21T12:23:00;101376.66;;;5.57;56.58
21706;BME280;11014;53.076;18.208;2023-11-21T12:25:31;101379.97;;;5.59;56.53
21706;BME280;11014;53.076;18.208;2023-11-21T12:28:02;101386.75;;;5.61;56.37
21706;BME280;11014;53.076;18.208;2023-11-21T12:30:33;101373.78;;;5.58;56.46
21706;BME280;11014;53.076;18.208;2023-11-21T12:33:04;101379.75;;;5.60;56.73
21706;BME280;11014;53.076;18.208;2023-11-21T12:35:35;101382.06;;;5.63;56.82
21706;BME280;11014;53.076;18.208;2023-11-21T12:38:04;101376.75;;;5.63;56.20
21706;BME280;11014;53.076;18.208;2023-11-21T12:40:34;101380.06;;;5.65;56.45
21706;BME280;11014;53.076;18.208;2023-11-21T12:43:02;101378.06;;;5.67;56.40
21706;BME280;11014;53.076;18.208;2023-11-21T12:45:33;101378.88;;;5.68;56.24
21706;BME280;11014;53.076;18.208;2023-11-21T12:48:04;101391.38;;;5.67;56.54
21706;BME280;11014;53.076;18.208;2023-11-21T12:50:37;101392.38;;;5.66;56.30
21706;BME280;11014;53.076;18.208;2023-11-21T12:53:08;101387.25;;;5.65;56.47
21706;BME280;11014;53.076;18.208;2023-11-21T12:55:39;101391.53;;;5.66;56.28
21706;BME280;11014;53.076;18.208;2023-11-21T12:58:09;101396.06;;;5.65;56.30
21706;BME280;11014;53.076;18.208;2023-11-21T13:00:43;101397.72;;;5.66;56.21
21706;BME280;11014;53.076;18.208;2023-11-21T13:03:15;101402.41;;;5.64;55.86
21706;BME280;11014;53.076;18.208;2023-11-21T13:05:53;101409.91;;;5.61;56.10
21706;BME280;11014;53.076;18.208;2023-11-21T13:08:26;101416.44;;;5.58;56.13
21706;BME280;11014;53.076;18.208;2023-11-21T13:10:57;101422.13;;;5.55;55.83